Time;durP1;ratioP1;P1;durP2;ratioP2;P2;SDS_P1;SDS_P2;PMS_P1;PMS_P2;Temp;Humidity;BMP_temperature;BMP_pressure;BME280_temperature;BME280_humidity;BME280_pressure;Samples;Min_cycle;Max_cycle;Signal;HPM_P1;HPM_P2
2022/05/05 00:01:58;;;;;;;4.85;4.40;;;;;;;15.74;64.88;100571.22;4973224;28;20392;-72
2022/05/05 00:04:23;;;;;;;4.43;4.13;;;;;;;15.74;64.82;100575.91;4971736;28;20970;-72
2022/05/05 00:06:49;;;;;;;5.10;4.60;;;;;;;15.76;64.69;100569.03;4970867;28;20419;-72
2022/05/05 00:09:14;;;;;;;7.18;4.93;;;;;;;15.74;64.85;100578.63;4973355;28;20396;-73
2022/05/05 00:14:24;;;;;;;5.18;4.47;;;;;;;15.84;64.62;100565.72;4958771;28;20399;-72
2022/05/05 00:16:53;;;;;;;5.27;4.83;;;;;;;15.84;64.37;100565.72;4971903;28;20420;-72
2022/05/05 00:19:18;;;;;;;5.53;5.03;;;;;;;15.85;64.62;100572.03;4972626;28;20408;-72
2022/05/05 00:21:43;;;;;;;5.60;5.00;;;;;;;15.84;64.59;100570.41;4973023;28;20400;-72
2022/05/05 00:24:09;;;;;;;5.60;5.10;;;;;;;15.78;64.71;100566.03;4972800;28;20427;-72
2022/05/05 00:26:34;;;;;;;5.53;4.68;;;;;;;15.77;64.93;100561.69;4971821;28;20490;-72
2022/05/05 00:29:00;;;;;;;6.07;5.47;;;;;;;15.75;64.83;100564.66;4971312;28;20399;-72
2022/05/05 00:31:25;;;;;;;4.80;4.50;;;;;;;15.74;64.87;100563.03;4962382;28;20846;-72
2022/05/05 00:33:50;;;;;;;5.30;4.90;;;;;;;15.72;65.11;100556.19;4973101;28;20392;-72
2022/05/05 00:36:16;;;;;;;5.13;4.72;;;;;;;15.73;65.05;100561.41;4972008;28;20759;-72
2022/05/05 00:38:41;;;;;;;5.70;5.20;;;;;;;15.68;65.13;100558.66;4972896;28;20396;-72
2022/05/05 00:41:06;;;;;;;5.67;5.27;;;;;;;15.72;65.01;100558.94;4972855;28;20487;-72
2022/05/05 00:43:33;;;;;;;5.65;5.18;;;;;;;15.72;65.03;100564.41;4972843;28;20411;-72
2022/05/05 00:45:58;;;;;;;5.07;4.67;;;;;;;15.68;65.24;100569.59;4972607;28;20407;-72
2022/05/05 00:48:26;;;;;;;5.93;5.43;;;;;;;15.69;65.26;100562.22;4972024;28;20495;-72
2022/05/05 00:50:51;;;;;;;5.95;5.40;;;;;;;15.70;65.15;100561.13;4973023;28;20400;-72
2022/05/05 00:53:16;;;;;;;6.30;5.70;;;;;;;15.68;65.10;100557.84;4972701;28;20392;-72
2022/05/05 00:55:42;;;;;;;5.47;5.07;;;;;;;15.56;65.40;100566.34;4972789;28;20424;-72
2022/05/05 00:58:09;;;;;;;5.97;5.47;;;;;;;15.51;65.58;100566.38;4971604;28;20502;-72
2022/05/05 01:00:34;;;;;;;5.20;4.80;;;;;;;15.56;65.51;100564.44;4972404;28;20736;-72
2022/05/05 01:03:00;;;;;;;5.25;4.85;;;;;;;15.58;65.48;100564.97;4972728;28;20394;-73
2022/05/05 01:05:30;;;;;;;6.13;5.63;;;;;;;15.53;65.54;100565.00;4972602;28;20418;-72
2022/05/05 01:07:58;;;;;;;6.00;5.40;;;;;;;15.55;65.52;100565.53;4985068;28;20416;-73
2022/05/05 01:10:25;;;;;;;5.43;5.03;;;;;;;15.54;65.48;100566.59;4972605;28;20392;-72
2022/05/05 01:19:35;;;;;;;8.35;5.45;;;;;;;15.47;65.80;100571.53;4971152;28;20783;-73
2022/05/05 01:22:00;;;;;;;6.75;5.35;;;;;;;15.45;65.93;100568.22;4972385;28;20384;-72
2022/05/05 01:29:55;;;;;;;6.15;5.68;;;;;;;15.51;66.00;100569.09;4962007;28;20408;-72
2022/05/05 01:32:20;;;;;;;7.45;6.85;;;;;;;15.54;65.93;100566.59;4976004;28;20404;-72
2022/05/05 01:34:47;;;;;;;6.47;5.88;;;;;;;15.55;66.20;100565.53;4975236;28;20825;-72
2022/05/05 01:37:12;;;;;;;7.30;6.07;;;;;;;15.53;65.92;100573.19;4974597;28;20408;-73
2022/05/05 01:39:37;;;;;;;6.70;6.10;;;;;;;15.53;66.13;100564.16;4975858;28;20388;-72
2022/05/05 01:42:04;;;;;;;6.83;6.23;;;;;;;15.54;66.32;100563.09;4958419;28;20427;-72
2022/05/05 01:44:29;;;;;;;6.75;6.20;;;;;;;15.54;66.08;100572.06;4974911;28;20420;-73
2022/05/05 01:46:54;;;;;;;6.60;6.00;;;;;;;15.49;66.19;100566.63;4958937;28;20440;-72
2022/05/05 01:53:01;;;;;;;5.65;5.22;;;;;;;15.42;66.53;100563.31;4975154;28;20399;-72
2022/05/05 01:55:27;;;;;;;6.50;5.90;;;;;;;15.42;66.73;100567.97;4974149;28;20486;-73
2022/05/05 01:57:54;;;;;;;7.20;5.32;;;;;;;15.41;66.64;100572.59;4957357;28;20468;-72
2022/05/05 02:00:20;;;;;;;6.65;5.93;;;;;;;15.40;66.50;100572.88;4975285;28;20882;-72
2022/05/05 02:02:46;;;;;;;5.97;5.57;;;;;;;15.38;66.76;100570.41;4975378;28;20413;-72
2022/05/05 02:05:12;;;;;;;5.77;5.20;;;;;;;15.38;66.93;100573.13;4974296;28;20543;-72
2022/05/05 02:07:39;;;;;;;5.80;5.30;;;;;;;15.38;66.77;100566.84;4974588;28;20408;-72
2022/05/05 02:10:06;;;;;;;5.72;5.22;;;;;;;15.36;66.64;100566.31;4975448;28;20428;-73
2022/05/05 02:12:32;;;;;;;5.85;5.30;;;;;;;15.35;66.76;100565.50;4970674;28;20787;-73
2022/05/05 02:14:57;;;;;;;5.93;5.45;;;;;;;15.38;66.56;100566.84;4965704;28;20416;-73
2022/05/05 02:17:23;;;;;;;6.07;5.57;;;;;;;15.35;66.66;100564.69;4968802;28;20839;-72
2022/05/05 02:19:48;;;;;;;6.53;5.05;;;;;;;15.34;66.72;100563.06;4975102;28;20409;-72
2022/05/05 02:22:14;;;;;;;6.67;5.40;;;;;;;15.33;66.59;100569.59;4975191;28;20392;-72
2022/05/05 02:24:40;;;;;;;5.63;5.23;;;;;;;15.30;66.78;100570.16;4973904;28;20456;-73
2022/05/05 02:27:05;;;;;;;6.43;5.15;;;;;;;15.23;66.81;100570.44;4974992;28;20495;-72
2022/05/05 02:29:31;;;;;;;5.50;5.00;;;;;;;15.23;66.97;100575.88;4974957;28;20396;-72
2022/05/05 02:31:56;;;;;;;5.40;5.00;;;;;;;15.20;67.24;100578.34;4974844;28;20491;-72
2022/05/05 02:34:21;;;;;;;5.70;4.90;;;;;;;15.20;66.84;100570.97;4972868;28;20412;-73
2022/05/05 02:39:30;;;;;;;5.18;4.78;;;;;;;15.20;66.86;100581.06;4974810;28;20531;-72
2022/05/05 02:41:56;;;;;;;6.88;5.60;;;;;;;15.20;66.83;100576.44;4974598;28;20471;-73
2022/05/05 02:44:21;;;;;;;4.80;4.30;;;;;;;15.20;67.01;100573.69;4974684;28;20388;-72
2022/05/05 02:46:46;;;;;;;6.30;5.70;;;;;;;15.25;66.87;100573.69;4973251;28;21034;-72
2022/05/05 02:49:13;;;;;;;6.20;5.53;;;;;;;15.24;66.60;100569.34;4973388;28;20408;-72
2022/05/05 02:51:38;;;;;;;5.50;5.10;;;;;;;15.25;66.74;100570.13;4958999;28;20809;-72
2022/05/05 02:56:48;;;;;;;6.40;5.80;;;;;;;15.23;66.89;100569.59;4973262;28;20885;-73
2022/05/05 02:59:13;;;;;;;6.50;5.40;;;;;;;15.23;67.15;100566.88;4970440;28;20394;-73
2022/05/05 03:01:39;;;;;;;5.87;5.47;;;;;;;15.23;67.03;100573.16;4969208;28;20403;-73
2022/05/05 03:04:04;;;;;;;5.63;5.23;;;;;;;15.21;67.07;100569.88;4974119;28;20402;-72
2022/05/05 03:06:29;;;;;;;6.37;5.77;;;;;;;15.20;67.19;100570.97;4971282;28;20898;-72
2022/05/05 03:08:54;;;;;;;6.97;5.77;;;;;;;15.19;67.13;100569.31;4974542;28;20400;-72
2022/05/05 03:11:20;;;;;;;6.23;5.73;;;;;;;15.17;67.18;100565.22;4973923;28;20787;-72
2022/05/05 03:13:45;;;;;;;6.50;5.87;;;;;;;15.15;67.23;100573.69;4974225;28;20759;-72
2022/05/05 03:16:10;;;;;;;6.23;5.73;;;;;;;15.13;67.50;100575.06;4971532;28;20426;-72
2022/05/05 03:18:36;;;;;;;7.35;6.75;;;;;;;15.10;67.57;100570.97;4974098;28;20435;-72
2022/05/05 03:21:01;;;;;;;6.50;6.00;;;;;;;15.10;67.52;100570.13;4974235;28;20437;-72
2022/05/05 03:23:26;;;;;;;7.03;6.43;;;;;;;15.02;67.80;100569.59;4973799;28;20447;-72
2022/05/05 03:25:52;;;;;;;6.70;6.00;;;;;;;15.00;67.47;100573.69;4972621;28;20760;-73
2022/05/05 03:28:18;;;;;;;6.72;6.07;;;;;;;14.98;67.86;100575.88;4973818;28;20400;-72
2022/05/05 03:30:43;;;;;;;7.40;6.70;;;;;;;14.91;67.82;100578.03;4973794;28;20392;-73
2022/05/05 03:33:09;;;;;;;6.90;6.40;;;;;;;14.82;68.28;100585.91;4973687;28;20400;-73
2022/05/05 03:35:34;;;;;;;6.70;6.17;;;;;;;14.80;68.18;100584.56;4972388;28;20443;-72
2022/05/05 03:37:59;;;;;;;8.00;6.80;;;;;;;14.77;68.20;100575.00;4956304;28;20396;-72
2022/05/05 03:40:25;;;;;;;6.23;5.77;;;;;;;14.75;68.52;100584.56;4973669;28;20424;-72
2022/05/05 03:42:50;;;;;;;5.60;5.20;;;;;;;14.74;68.31;100580.19;4973594;28;20891;-72
2022/05/05 03:45:16;;;;;;;6.10;5.63;;;;;;;14.72;68.45;100580.44;4971602;28;20924;-72
2022/05/05 03:47:41;;;;;;;7.50;6.80;;;;;;;14.71;68.44;100586.19;4972952;28;20393;-72
2022/05/05 03:50:08;;;;;;;6.00;5.53;;;;;;;14.76;68.20;100583.44;4973472;28;20400;-73
2022/05/05 03:52:34;;;;;;;6.13;5.63;;;;;;;14.71;68.04;100588.91;4972333;28;20736;-72
2022/05/05 03:54:59;;;;;;;6.20;5.70;;;;;;;14.64;68.35;100583.72;4972227;28;20512;-72
2022/05/05 03:57:24;;;;;;;5.80;5.40;;;;;;;14.56;68.43;100595.13;4973346;28;20446;-72
2022/05/05 03:59:50;;;;;;;6.80;5.70;;;;;;;14.53;68.63;100598.38;4973252;28;20400;-72
2022/05/05 04:02:15;;;;;;;6.13;5.63;;;;;;;14.52;68.57;100594.84;4972347;28;20495;-72
2022/05/05 04:04:40;;;;;;;5.73;5.23;;;;;;;14.54;68.47;100600.03;4973077;28;20470;-73
2022/05/05 04:07:05;;;;;;;6.20;5.63;;;;;;;14.52;68.53;100603.00;4970546;28;20458;-72
2022/05/05 04:09:31;;;;;;;5.50;5.07;;;;;;;14.46;68.65;100604.09;4973139;28;20763;-73
2022/05/05 04:11:56;;;;;;;5.30;4.80;;;;;;;14.43;69.07;100599.16;4973039;28;20409;-73
2022/05/05 04:14:21;;;;;;;5.37;4.93;;;;;;;14.47;69.03;100610.38;4970891;28;20850;-73
2022/05/05 04:16:46;;;;;;;5.07;4.77;;;;;;;14.53;68.84;100612.03;4970771;28;20423;-72
2022/05/05 04:19:12;;;;;;;5.40;4.90;;;;;;;14.52;68.61;100613.13;4973171;28;20406;-73
2022/05/05 04:21:37;;;;;;;5.77;5.27;;;;;;;14.50;68.81;100612.56;4955635;28;20861;-73
2022/05/05 04:24:03;;;;;;;7.17;5.20;;;;;;;14.47;68.93;100613.91;4977759;28;20420;-73
2022/05/05 04:26:28;;;;;;;5.65;5.30;;;;;;;14.54;68.22;100619.13;4971966;28;20424;-72
2022/05/05 04:28:56;;;;;;;5.65;5.15;;;;;;;14.61;68.20;100618.88;4982136;28;20400;-73
2022/05/05 04:31:22;;;;;;;5.78;5.38;;;;;;;14.59;68.39;100621.84;4975013;28;20415;-72
2022/05/05 04:33:48;;;;;;;6.40;5.80;;;;;;;14.53;68.70;100622.94;4977440;28;20424;-72
2022/05/05 04:36:14;;;;;;;5.97;5.47;;;;;;;14.51;68.87;100630.56;4955190;28;20460;-72
2022/05/05 04:38:39;;;;;;;7.30;5.40;;;;;;;14.52;68.74;100630.28;4970977;28;20771;-73
2022/05/05 04:41:05;;;;;;;5.40;5.00;;;;;;;14.54;68.59;100633.59;4964471;28;20400;-73
2022/05/05 04:43:30;;;;;;;6.17;5.57;;;;;;;14.54;69.13;100633.59;4972724;28;20803;-72
2022/05/05 04:45:56;;;;;;;5.43;4.93;;;;;;;14.54;69.11;100639.03;4972590;28;20419;-72
2022/05/05 04:48:21;;;;;;;6.47;5.97;;;;;;;14.57;69.11;100640.41;4972298;28;20411;-73
2022/05/05 04:50:46;;;;;;;6.32;5.53;;;;;;;14.62;68.85;100645.06;4971718;28;20443;-72
2022/05/05 04:53:11;;;;;;;5.90;5.40;;;;;;;14.66;68.77;100649.72;4965133;28;20400;-72
2022/05/05 04:55:37;;;;;;;6.33;5.83;;;;;;;14.64;68.63;100648.34;4969087;28;20416;-72
2022/05/05 04:58:02;;;;;;;6.20;5.70;;;;;;;14.66;68.81;100649.72;4969685;28;20482;-72
2022/05/05 05:00:29;;;;;;;7.47;6.00;;;;;;;14.69;68.60;100649.16;4975983;28;20418;-72
2022/05/05 05:02:55;;;;;;;6.55;6.00;;;;;;;14.76;68.53;100655.19;4959232;28;20396;-72
2022/05/05 05:05:20;;;;;;;8.33;5.90;;;;;;;14.86;68.31;100657.13;4974908;28;20929;-72
2022/05/05 05:07:45;;;;;;;6.97;6.37;;;;;;;14.79;68.51;100654.66;4957368;28;20406;-72
2022/05/05 05:10:11;;;;;;;6.40;5.50;;;;;;;14.77;68.87;100656.03;4975471;28;20744;-72
2022/05/05 05:12:36;;;;;;;8.23;5.67;;;;;;;14.75;68.74;100663.66;4976143;28;20400;-72
2022/05/05 05:15:02;;;;;;;8.50;5.80;;;;;;;14.79;68.53;100660.13;4974962;28;20400;-73
2022/05/05 05:17:27;;;;;;;6.20;5.60;;;;;;;14.84;68.38;100664.78;4976078;28;20424;-73
2022/05/05 05:19:52;;;;;;;5.90;5.30;;;;;;;14.87;68.24;100667.81;4976042;28;20402;-73
2022/05/05 05:22:18;;;;;;;7.60;5.77;;;;;;;14.90;68.19;100669.16;4958459;28;20495;-73
2022/05/05 05:24:43;;;;;;;5.97;5.22;;;;;;;14.92;68.22;100669.72;4975726;28;20469;-73
2022/05/05 05:27:09;;;;;;;6.97;5.77;;;;;;;14.89;68.16;100673.81;4975375;28;20408;-73
2022/05/05 05:29:34;;;;;;;6.43;5.82;;;;;;;14.92;68.21;100672.44;4971647;28;20400;-73
2022/05/05 05:32:00;;;;;;;6.37;5.77;;;;;;;14.90;68.26;100680.09;4975510;28;20414;-73
2022/05/05 05:34:25;;;;;;;7.50;6.50;;;;;;;14.89;68.67;100681.16;4964123;28;20412;-73
2022/05/05 05:36:51;;;;;;;7.17;6.17;;;;;;;14.93;68.42;100674.91;4970739;28;20407;-73
2022/05/05 05:39:17;;;;;;;7.03;6.43;;;;;;;14.94;68.46;100676.56;4975633;28;20450;-73
2022/05/05 05:41:43;;;;;;;6.78;6.10;;;;;;;14.99;68.72;100673.84;4975551;28;20400;-73
2022/05/05 05:44:08;;;;;;;7.32;6.10;;;;;;;15.02;68.26;100681.47;4969095;28;20423;-73
2022/05/05 05:46:34;;;;;;;9.43;6.95;;;;;;;15.06;68.45;100679.03;4975153;28;20420;-73
2022/05/05 05:48:59;;;;;;;6.83;6.00;;;;;;;15.07;68.58;100683.41;4974999;28;20487;-73
2022/05/05 05:51:24;;;;;;;7.40;6.63;;;;;;;15.07;68.83;100686.97;4963650;28;20774;-73
2022/05/05 05:53:50;;;;;;;7.47;6.90;;;;;;;15.06;68.65;100695.41;4975521;28;20411;-73
2022/05/05 05:56:15;;;;;;;7.27;6.63;;;;;;;15.05;68.59;100691.03;4973038;28;20781;-73
2022/05/05 05:58:41;;;;;;;7.27;6.67;;;;;;;15.11;68.63;100695.44;4972129;28;20408;-73
2022/05/05 06:01:06;;;;;;;7.93;7.27;;;;;;;15.06;68.65;100696.25;4969140;28;20467;-73
2022/05/05 06:06:15;;;;;;;7.72;6.97;;;;;;;14.99;69.32;100711.22;4972021;28;20463;-73
2022/05/05 06:08:41;;;;;;;8.30;7.47;;;;;;;14.99;69.48;100713.94;4970797;28;20428;-73
2022/05/05 06:11:06;;;;;;;7.90;7.20;;;;;;;14.95;69.52;100707.41;4955033;28;20419;-73
2022/05/05 06:13:31;;;;;;;7.97;7.33;;;;;;;14.91;69.69;100709.03;4975881;28;20397;-73
2022/05/05 06:15:57;;;;;;;7.63;6.97;;;;;;;14.93;69.50;100713.13;4981997;28;20408;-73
2022/05/05 06:18:22;;;;;;;8.40;7.70;;;;;;;14.96;69.74;100717.22;4974322;28;20875;-73
2022/05/05 06:20:47;;;;;;;12.83;7.57;;;;;;;14.95;69.79;100716.38;4965786;28;20405;-72
2022/05/05 06:23:13;;;;;;;8.13;7.53;;;;;;;15.02;69.52;100713.41;4975036;28;20396;-73
2022/05/05 06:25:39;;;;;;;8.20;7.40;;;;;;;15.00;69.74;100715.59;4970622;28;20844;-73
2022/05/05 06:28:04;;;;;;;8.65;7.72;;;;;;;15.00;70.17;100713.69;4979109;28;20411;-73
2022/05/05 06:30:30;;;;;;;9.07;8.25;;;;;;;15.04;69.91;100722.16;4974677;28;20874;-73
2022/05/05 06:32:55;;;;;;;9.97;7.67;;;;;;;15.08;69.62;100724.06;4974794;28;20403;-73
2022/05/05 06:35:20;;;;;;;8.00;7.40;;;;;;;15.01;69.99;100725.44;4974023;28;20483;-73
2022/05/05 06:37:50;;;;;;;8.87;7.67;;;;;;;14.96;70.38;100737.16;4957337;28;20393;-73
2022/05/05 06:40:16;;;;;;;8.20;7.43;;;;;;;14.95;70.06;100737.44;4974583;28;20396;-73
2022/05/05 06:42:41;;;;;;;8.67;7.87;;;;;;;14.92;70.25;100738.75;4974064;28;20409;-73
2022/05/05 06:45:07;;;;;;;8.23;7.43;;;;;;;14.94;70.55;100743.97;4974333;28;20416;-73
2022/05/05 06:47:33;;;;;;;8.75;8.05;;;;;;;14.93;70.71;100750.50;4974539;28;20438;-73
2022/05/05 06:49:58;;;;;;;9.55;7.93;;;;;;;14.95;70.84;100754.59;4981382;28;20421;-73
2022/05/05 06:52:24;;;;;;;9.00;8.27;;;;;;;15.02;70.38;100752.44;4967692;28;20487;-73
2022/05/05 06:54:49;;;;;;;8.65;7.95;;;;;;;15.07;70.55;100755.22;4974430;28;20983;-73
2022/05/05 06:57:14;;;;;;;11.03;9.00;;;;;;;15.11;70.90;100757.41;4973562;28;20408;-73
2022/05/05 06:59:40;;;;;;;8.97;8.17;;;;;;;15.16;71.37;100765.59;4974234;28;20392;-73
2022/05/05 07:02:05;;;;;;;9.23;8.33;;;;;;;15.16;71.67;100765.59;4974309;28;20397;-73
2022/05/05 07:07:15;;;;;;;9.52;8.63;;;;;;;15.03;72.59;100764.19;4974444;28;20495;-73
2022/05/05 07:12:26;;;;;;;9.75;8.90;;;;;;;15.08;72.77;100766.97;4974383;28;20403;-73
2022/05/05 07:14:52;;;;;;;9.57;8.68;;;;;;;15.13;72.04;100769.69;4973977;28;20401;-72
2022/05/05 07:17:17;;;;;;;10.17;9.20;;;;;;;15.16;71.63;100762.88;4974068;28;20419;-72
2022/05/05 07:19:43;;;;;;;9.73;8.73;;;;;;;15.18;72.33;100768.91;4973924;28;20388;-72
2022/05/05 07:22:08;;;;;;;10.67;9.63;;;;;;;15.19;72.77;100776.81;4972980;28;20408;-72
2022/05/05 07:24:34;;;;;;;11.38;10.20;;;;;;;15.21;73.04;100766.47;4973557;28;20589;-72
2022/05/05 07:27:00;;;;;;;11.53;10.33;;;;;;;15.27;72.24;100776.31;4973068;28;20392;-72
2022/05/05 07:29:25;;;;;;;10.73;9.50;;;;;;;15.21;71.08;100785.56;4960877;28;20969;-72
2022/05/05 07:31:51;;;;;;;10.63;9.73;;;;;;;15.19;72.13;100782.25;4959906;28;20503;-72
2022/05/05 07:34:18;;;;;;;12.30;10.13;;;;;;;15.20;71.85;100786.66;4973108;28;20416;-72
2022/05/05 07:36:43;;;;;;;11.02;9.88;;;;;;;15.26;71.59;100788.31;4973727;28;20451;-72
2022/05/05 07:39:09;;;;;;;12.93;10.07;;;;;;;15.31;71.44;100795.69;4972803;28;20771;-72
2022/05/05 07:41:35;;;;;;;11.30;10.10;;;;;;;15.33;71.72;100783.41;4973079;28;20444;-72
2022/05/05 07:44:01;;;;;;;13.35;10.65;;;;;;;15.37;71.58;100790.00;4973457;28;20484;-72
2022/05/05 07:46:27;;;;;;;14.70;10.68;;;;;;;15.40;71.41;100791.34;4972868;28;20507;-72
2022/05/05 07:48:52;;;;;;;14.05;10.30;;;;;;;15.43;71.56;100797.09;4972797;28;20424;-72
2022/05/05 07:51:18;;;;;;;13.85;11.13;;;;;;;15.46;71.79;100795.75;4972004;28;20834;-72
2022/05/05 07:54:34;;;;;;;12.23;10.00;;;;;;;15.46;71.82;100804.75;4971899;28;21121;-72
2022/05/05 07:56:28;;;;;;;11.10;9.93;;;;;;;15.48;71.80;100801.78;4968102;28;20759;-73
2022/05/05 07:58:54;;;;;;;13.63;10.83;;;;;;;15.47;72.43;100808.31;4972148;28;20420;-72
2022/05/05 08:01:19;;;;;;;17.40;12.50;;;;;;;15.47;71.17;100803.69;4973131;28;20643;-72
2022/05/05 08:03:44;;;;;;;14.05;11.32;;;;;;;15.38;71.64;100805.25;4972667;28;20420;-72
2022/05/05 08:06:10;;;;;;;14.93;11.97;;;;;;;15.41;71.90;100804.72;4973065;28;20423;-72
2022/05/05 08:08:35;;;;;;;12.57;11.33;;;;;;;15.38;71.42;100799.81;4971541;28;20918;-72
2022/05/05 08:11:00;;;;;;;13.07;11.68;;;;;;;15.40;71.68;100811.28;4973115;28;20392;-73
2022/05/05 08:13:25;;;;;;;13.50;12.10;;;;;;;15.46;72.37;100809.41;4972626;28;20415;-72
2022/05/05 08:15:51;;;;;;;16.00;12.00;;;;;;;15.52;71.42;100824.72;4972325;28;20427;-72
2022/05/05 08:18:16;;;;;;;15.67;12.23;;;;;;;15.53;71.71;100818.19;4972162;28;20510;-72
2022/05/05 08:20:41;;;;;;;13.17;11.87;;;;;;;15.50;71.34;100816.81;4972212;28;20503;-72
2022/05/05 08:23:06;;;;;;;13.73;12.33;;;;;;;15.51;71.54;100825.84;4972628;28;20404;-72
2022/05/05 08:28:36;;;;;;;16.67;13.50;;;;;;;15.53;71.80;100824.47;4913216;29;20401;-73
2022/05/05 08:31:02;;;;;;;14.18;12.75;;;;;;;15.49;72.15;100822.53;4961662;28;20396;-72
2022/05/05 08:33:28;;;;;;;20.23;15.10;;;;;;;15.39;71.84;100828.75;4971982;28;20918;-72
2022/05/05 08:35:55;;;;;;;17.83;15.90;;;;;;;15.34;71.82;100828.75;4971537;28;20393;-72
2022/05/05 08:38:20;;;;;;;19.92;16.50;;;;;;;15.33;71.82;100832.56;4972197;28;20423;-72
2022/05/05 08:40:47;;;;;;;18.70;15.47;;;;;;;15.33;72.02;100838.03;4943287;28;20408;-72
2022/05/05 08:43:13;;;;;;;18.17;14.85;;;;;;;15.32;71.85;100835.56;4971902;28;20902;-72
2022/05/05 08:45:39;;;;;;;19.48;14.65;;;;;;;15.21;71.97;100840.16;4955301;28;20424;-73
2022/05/05 08:48:10;;;;;;;20.35;16.52;;;;;;;15.20;72.25;100846.72;4971997;28;20420;-72
2022/05/05 08:50:37;;;;;;;20.67;16.20;;;;;;;15.20;72.18;100848.63;4971877;28;20494;-72
2022/05/05 08:53:04;;;;;;;19.10;16.03;;;;;;;15.18;72.01;100848.06;4972743;28;20384;-72
2022/05/05 08:55:31;;;;;;;18.50;16.42;;;;;;;15.12;71.72;100849.94;4966520;28;20495;-72
2022/05/05 08:57:56;;;;;;;18.75;15.55;;;;;;;15.07;71.50;100863.56;4967383;28;20502;-72
2022/05/05 09:00:23;;;;;;;18.63;15.93;;;;;;;15.06;72.08;100860.00;4972128;28;20848;-72
2022/05/05 09:02:54;;;;;;;20.45;15.85;;;;;;;15.04;71.89;100858.63;4971713;28;20404;-72
2022/05/05 09:05:44;;;;;;;19.98;16.83;;;;;;;15.00;71.86;100858.34;4971328;28;20498;-72
2022/05/05 09:08:11;;;;;;;18.48;16.38;;;;;;;14.93;71.33;100862.38;4968049;28;20759;-72
2022/05/05 09:10:44;;;;;;;20.95;17.00;;;;;;;14.90;71.49;100861.00;4971832;28;21229;-72
2022/05/05 09:13:09;;;;;;;19.15;15.85;;;;;;;14.89;71.96;100866.72;4969880;28;20426;-72
2022/05/05 09:15:36;;;;;;;19.57;16.17;;;;;;;14.86;71.58;100864.53;4954293;28;20982;-72
2022/05/05 09:18:15;;;;;;;21.47;16.93;;;;;;;14.85;72.15;100868.34;4971402;28;20473;-72
2022/05/05 09:20:43;;;;;;;20.27;16.60;;;;;;;14.85;72.03;100862.91;4963427;28;20416;-72
2022/05/05 09:23:08;;;;;;;21.00;15.75;;;;;;;14.83;72.23;100865.03;4963965;28;20448;-72
2022/05/05 09:25:47;;;;;;;19.93;16.70;;;;;;;14.74;72.67;100866.63;4971587;28;20452;-72
2022/05/05 09:28:21;;;;;;;18.40;15.52;;;;;;;14.75;72.48;100866.34;4963015;28;20431;-72
2022/05/05 09:30:51;;;;;;;21.80;16.52;;;;;;;14.76;72.73;100869.91;4966442;28;20432;-72
2022/05/05 09:33:35;;;;;;;20.08;15.95;;;;;;;14.70;72.89;100862.78;4971398;28;20412;-72
2022/05/05 09:36:10;;;;;;;20.98;15.52;;;;;;;14.71;73.08;100867.97;4971686;28;20421;-72
2022/05/05 09:38:56;;;;;;;22.67;16.27;;;;;;;14.73;73.27;100876.72;4972546;28;20751;-72
2022/05/05 09:41:29;;;;;;;22.58;16.33;;;;;;;14.76;73.87;100878.91;4965629;28;20416;-72
2022/05/05 09:43:56;;;;;;;21.33;16.20;;;;;;;14.75;73.79;100871.81;4972623;28;20870;-72
2022/05/05 09:46:21;;;;;;;21.67;16.80;;;;;;;14.79;73.87;100880.28;4971477;28;20758;-73
2022/05/05 09:48:47;;;;;;;18.60;16.67;;;;;;;14.81;74.17;100876.25;4972290;28;20408;-72
2022/05/05 09:51:14;;;;;;;20.90;17.80;;;;;;;14.86;74.36;100873.53;4964182;28;20423;-72
2022/05/05 09:59:14;;;;;;;24.85;18.20;;;;;;;14.85;74.52;100876.53;4971651;28;20518;-72
2022/05/05 10:01:41;;;;;;;20.70;15.95;;;;;;;14.84;74.15;100875.72;4970802;28;20423;-72
2022/05/05 10:04:09;;;;;;;19.52;15.90;;;;;;;14.79;74.23;100874.84;4975150;28;20392;-72
2022/05/05 10:06:42;;;;;;;18.63;16.08;;;;;;;14.85;74.13;100884.72;4973750;28;20424;-72
2022/05/05 10:09:13;;;;;;;18.95;15.82;;;;;;;14.86;74.14;100895.34;4974445;28;20412;-72
2022/05/05 10:11:40;;;;;;;19.13;17.13;;;;;;;14.88;73.99;100881.47;4965503;28;20427;-72
2022/05/05 10:14:07;;;;;;;20.50;15.73;;;;;;;14.86;73.82;100887.19;4967984;28;20420;-72
2022/05/05 10:16:35;;;;;;;20.23;16.23;;;;;;;14.87;74.20;100885.28;4968960;28;20970;-73
2022/05/05 10:19:03;;;;;;;22.42;17.95;;;;;;;14.91;74.45;100886.41;4974793;28;20887;-73
2022/05/05 10:21:37;;;;;;;23.73;17.15;;;;;;;14.93;74.29;100885.03;4954975;28;20906;-72
2022/05/05 10:24:28;;;;;;;20.83;16.35;;;;;;;14.89;74.32;100878.47;4960114;28;20829;-72
2022/05/05 10:26:56;;;;;;;20.30;17.45;;;;;;;14.86;74.41;100880.88;4961945;28;20825;-72
2022/05/05 10:29:40;;;;;;;19.20;15.95;;;;;;;14.91;74.79;100889.94;4971411;28;20416;-72
2022/05/05 10:32:19;;;;;;;21.70;16.75;;;;;;;14.89;73.98;100877.63;4971343;28;20420;-72
2022/05/05 10:34:46;;;;;;;20.65;16.63;;;;;;;14.83;74.25;100882.25;4969705;28;20407;-72
2022/05/05 10:37:14;;;;;;;20.43;15.20;;;;;;;14.86;74.16;100880.88;4974843;28;20392;-72
2022/05/05 10:39:58;;;;;;;17.90;15.30;;;;;;;14.89;73.84;100883.09;4973698;28;20498;-72
2022/05/05 10:42:26;;;;;;;19.77;15.98;;;;;;;14.90;72.21;100885.56;4959775;28;20458;-72
2022/05/05 10:45:17;;;;;;;17.02;15.23;;;;;;;14.96;72.75;100883.69;4967850;28;20415;-72
2022/05/05 10:48:04;;;;;;;20.38;14.82;;;;;;;14.97;72.61;100879.88;4961065;28;20430;-73
2022/05/05 10:50:56;;;;;;;20.13;15.32;;;;;;;14.99;73.25;100889.44;4972140;28;20427;-72
2022/05/05 10:53:31;;;;;;;19.90;16.48;;;;;;;14.99;73.10;100896.81;4974310;28;20412;-72
2022/05/05 10:55:59;;;;;;;17.83;14.77;;;;;;;14.98;73.25;100889.72;4968786;28;20437;-72
2022/05/05 10:59:03;;;;;;;17.13;14.50;;;;;;;14.97;72.91;100899.00;4973092;28;20767;-72
2022/05/05 11:01:32;;;;;;;19.95;15.80;;;;;;;14.94;73.60;100892.16;4966278;28;20441;-72
2022/05/05 11:04:23;;;;;;;17.90;14.60;;;;;;;14.95;73.06;100892.97;4970191;28;20424;-71
2022/05/05 11:07:27;;;;;;;19.77;15.13;;;;;;;14.93;73.06;100895.97;4960183;28;20420;-71
2022/05/05 11:09:53;;;;;;;21.42;14.73;;;;;;;14.93;73.27;100897.84;4972692;28;20408;-72
2022/05/05 11:12:20;;;;;;;19.03;14.57;;;;;;;14.90;73.37;100896.50;4968764;28;20418;-72
2022/05/05 11:23:49;;;;;;;17.75;14.82;;;;;;;15.01;73.35;100890.03;4958674;28;20419;-72
2022/05/05 11:26:20;;;;;;;18.48;14.75;;;;;;;15.05;73.58;100901.22;4973877;28;20420;-71
2022/05/05 11:28:47;;;;;;;20.80;14.57;;;;;;;15.04;73.29;100891.41;4972734;28;20471;-72
2022/05/05 11:31:38;;;;;;;20.27;15.48;;;;;;;15.06;73.29;100898.22;4973553;28;20403;-71
2022/05/05 11:34:04;;;;;;;19.10;14.85;;;;;;;15.07;73.60;100894.41;4970665;28;20906;-72
2022/05/05 11:36:34;;;;;;;20.60;15.82;;;;;;;15.09;73.58;100891.41;4964327;28;20441;-72
2022/05/05 11:39:01;;;;;;;16.90;13.52;;;;;;;15.13;73.98;100883.50;4968388;28;20421;-72
2022/05/05 11:41:28;;;;;;;19.07;13.70;;;;;;;15.16;73.07;100886.53;4973629;28;20399;-72
2022/05/05 11:46:38;;;;;;;19.08;14.88;;;;;;;15.22;73.52;100885.47;4973539;28;20450;-71
2022/05/05 11:49:04;;;;;;;19.10;14.23;;;;;;;15.24;73.23;100886.06;4962627;28;20457;-72
2022/05/05 11:51:33;;;;;;;18.57;14.47;;;;;;;15.32;73.54;100880.06;4972988;28;20403;-71
2022/05/05 11:54:02;;;;;;;17.92;14.10;;;;;;;15.38;73.33;100881.72;4969198;28;20746;-71
2022/05/05 11:56:28;;;;;;;19.27;14.30;;;;;;;15.42;72.46;100868.38;4968640;28;20866;-72
2022/05/05 12:01:39;;;;;;;20.65;14.95;;;;;;;15.46;72.83;100880.41;4966204;28;20426;-72
2022/05/05 12:04:06;;;;;;;18.08;14.18;;;;;;;15.47;71.95;100887.53;4972423;28;20423;-72
2022/05/05 12:06:32;;;;;;;19.15;14.40;;;;;;;15.43;71.58;100879.03;4972178;28;20428;-71
2022/05/05 12:08:58;;;;;;;17.23;14.15;;;;;;;15.38;71.67;100879.00;4959866;28;20891;-71
2022/05/05 12:11:29;;;;;;;18.15;14.45;;;;;;;15.32;72.09;100884.69;4972609;28;20412;-72
2022/05/05 12:14:05;;;;;;;17.58;13.95;;;;;;;15.30;72.31;100886.88;4967815;28;20416;-72
2022/05/05 12:16:35;;;;;;;19.75;14.55;;;;;;;15.26;72.70;100886.59;4972969;28;20412;-72